sensor_id;sensor_type;location;lat;lon;timestamp;P1;durP1;ratioP1;P2;durP2;ratioP2
22129;SDS011;11231;50.746;4.272;2023-07-20T00:00:28;10.53;;;2.70;;
22129;SDS011;11231;50.746;4.272;2023-07-20T00:03:05;7.10;;;2.50;;
22129;SDS011;11231;50.746;4.272;2023-07-20T00:05:36;10.80;;;2.93;;
22129;SDS011;11231;50.746;4.272;2023-07-20T00:08:01;7.43;;;2.70;;
22129;SDS011;11231;50.746;4.272;2023-07-20T00:10:27;8.43;;;2.77;;
22129;SDS011;11231;50.746;4.272;2023-07-20T00:12:53;9.57;;;2.70;;
22129;SDS011;11231;50.746;4.272;2023-07-20T00:15:18;11.37;;;2.70;;
22129;SDS011;11231;50.746;4.272;2023-07-20T00:17:44;8.87;;;3.00;;
22129;SDS011;11231;50.746;4.272;2023-07-20T00:20:10;10.00;;;2.60;;
22129;SDS011;11231;50.746;4.272;2023-07-20T00:22:36;9.33;;;2.70;;
22129;SDS011;11231;50.746;4.272;2023-07-20T00:25:02;7.73;;;2.47;;
22129;SDS011;11231;50.746;4.272;2023-07-20T00:27:28;8.57;;;2.73;;
22129;SDS011;11231;50.746;4.272;2023-07-20T00:29:54;7.43;;;2.50;;
22129;SDS011;11231;50.746;4.272;2023-07-20T00:32:19;9.10;;;2.80;;
22129;SDS011;11231;50.746;4.272;2023-07-20T00:34:45;12.47;;;3.47;;
22129;SDS011;11231;50.746;4.272;2023-07-20T00:37:11;11.77;;;3.13;;
22129;SDS011;11231;50.746;4.272;2023-07-20T00:39:37;9.37;;;2.90;;
22129;SDS011;11231;50.746;4.272;2023-07-20T00:42:03;9.50;;;2.87;;
22129;SDS011;11231;50.746;4.272;2023-07-20T00:44:29;10.47;;;2.80;;
22129;SDS011;11231;50.746;4.272;2023-07-20T00:46:55;8.07;;;2.90;;
22129;SDS011;11231;50.746;4.272;2023-07-20T00:49:21;7.97;;;2.90;;
22129;SDS011;11231;50.746;4.272;2023-07-20T00:51:49;10.60;;;3.10;;
22129;SDS011;11231;50.746;4.272;2023-07-20T00:54:15;8.80;;;3.00;;
22129;SDS011;11231;50.746;4.272;2023-07-20T00:56:43;9.57;;;2.97;;
22129;SDS011;11231;50.746;4.272;2023-07-20T00:59:09;9.23;;;3.20;;
22129;SDS011;11231;50.746;4.272;2023-07-20T01:01:35;11.33;;;3.20;;
22129;SDS011;11231;50.746;4.272;2023-07-20T01:04:01;13.77;;;3.10;;
22129;SDS011;11231;50.746;4.272;2023-07-20T01:14:14;7.77;;;3.23;;
22129;SDS011;11231;50.746;4.272;2023-07-20T01:16:41;11.97;;;3.70;;
22129;SDS011;11231;50.746;4.272;2023-07-20T01:19:07;12.07;;;3.47;;
22129;SDS011;11231;50.746;4.272;2023-07-20T01:21:55;12.20;;;3.93;;
22129;SDS011;11231;50.746;4.272;2023-07-20T01:33:11;12.40;;;3.60;;
22129;SDS011;11231;50.746;4.272;2023-07-20T01:35:39;11.53;;;3.17;;
22129;SDS011;11231;50.746;4.272;2023-07-20T01:38:09;13.07;;;3.50;;
22129;SDS011;11231;50.746;4.272;2023-07-20T01:40:36;13.33;;;3.87;;
22129;SDS011;11231;50.746;4.272;2023-07-20T01:43:04;11.50;;;3.27;;
22129;SDS011;11231;50.746;4.272;2023-07-20T01:45:29;10.00;;;3.67;;
22129;SDS011;11231;50.746;4.272;2023-07-20T01:47:56;11.17;;;3.30;;
22129;SDS011;11231;50.746;4.272;2023-07-20T01:50:22;10.93;;;3.33;;
22129;SDS011;11231;50.746;4.272;2023-07-20T01:52:47;14.33;;;3.83;;
22129;SDS011;11231;50.746;4.272;2023-07-20T01:55:13;10.07;;;3.43;;
22129;SDS011;11231;50.746;4.272;2023-07-20T01:57:39;13.20;;;3.47;;
22129;SDS011;11231;50.746;4.272;2023-07-20T02:00:05;12.60;;;3.50;;
22129;SDS011;11231;50.746;4.272;2023-07-20T02:02:39;10.50;;;3.50;;
22129;SDS011;11231;50.746;4.272;2023-07-20T02:05:06;10.17;;;3.50;;
22129;SDS011;11231;50.746;4.272;2023-07-20T02:07:32;12.07;;;3.83;;
22129;SDS011;11231;50.746;4.272;2023-07-20T02:09:58;10.13;;;3.90;;
22129;SDS011;11231;50.746;4.272;2023-07-20T02:12:24;12.47;;;3.80;;
22129;SDS011;11231;50.746;4.272;2023-07-20T02:14:50;10.67;;;3.57;;
22129;SDS011;11231;50.746;4.272;2023-07-20T02:17:16;8.17;;;3.20;;
22129;SDS011;11231;50.746;4.272;2023-07-20T02:19:42;12.33;;;3.70;;
22129;SDS011;11231;50.746;4.272;2023-07-20T02:22:07;10.90;;;3.60;;
22129;SDS011;11231;50.746;4.272;2023-07-20T02:24:33;11.43;;;3.80;;
22129;SDS011;11231;50.746;4.272;2023-07-20T02:26:59;11.57;;;3.73;;
22129;SDS011;11231;50.746;4.272;2023-07-20T02:29:25;10.17;;;3.80;;
22129;SDS011;11231;50.746;4.272;2023-07-20T02:31:51;14.37;;;3.83;;
22129;SDS011;11231;50.746;4.272;2023-07-20T02:34:16;13.53;;;4.10;;
22129;SDS011;11231;50.746;4.272;2023-07-20T02:36:42;12.97;;;3.77;;
22129;SDS011;11231;50.746;4.272;2023-07-20T02:39:08;13.23;;;4.53;;
22129;SDS011;11231;50.746;4.272;2023-07-20T02:41:35;12.00;;;4.40;;
22129;SDS011;11231;50.746;4.272;2023-07-20T02:44:00;17.60;;;4.90;;
22129;SDS011;11231;50.746;4.272;2023-07-20T02:46:27;15.17;;;4.60;;
22129;SDS011;11231;50.746;4.272;2023-07-20T02:48:55;16.07;;;5.00;;
22129;SDS011;11231;50.746;4.272;2023-07-20T02:51:20;13.00;;;5.13;;
22129;SDS011;11231;50.746;4.272;2023-07-20T02:53:46;17.33;;;5.90;;
22129;SDS011;11231;50.746;4.272;2023-07-20T02:56:12;15.73;;;5.40;;
22129;SDS011;11231;50.746;4.272;2023-07-20T02:58:39;18.23;;;5.80;;
22129;SDS011;11231;50.746;4.272;2023-07-20T03:01:08;14.17;;;5.40;;
22129;SDS011;11231;50.746;4.272;2023-07-20T03:03:35;13.30;;;5.33;;
22129;SDS011;11231;50.746;4.272;2023-07-20T03:06:04;13.37;;;5.47;;
22129;SDS011;11231;50.746;4.272;2023-07-20T03:08:30;16.90;;;6.40;;
22129;SDS011;11231;50.746;4.272;2023-07-20T03:10:56;19.07;;;6.30;;
22129;SDS011;11231;50.746;4.272;2023-07-20T03:13:22;17.83;;;6.80;;
22129;SDS011;11231;50.746;4.272;2023-07-20T03:15:49;14.93;;;6.17;;
22129;SDS011;11231;50.746;4.272;2023-07-20T03:18:15;17.77;;;6.27;;
22129;SDS011;11231;50.746;4.272;2023-07-20T03:20:41;18.37;;;6.53;;
22129;SDS011;11231;50.746;4.272;2023-07-20T03:23:07;18.93;;;7.00;;
22129;SDS011;11231;50.746;4.272;2023-07-20T03:25:32;17.20;;;7.10;;
22129;SDS011;11231;50.746;4.272;2023-07-20T03:27:58;17.37;;;7.27;;
22129;SDS011;11231;50.746;4.272;2023-07-20T03:30:25;15.73;;;6.70;;
22129;SDS011;11231;50.746;4.272;2023-07-20T03:32:51;19.07;;;7.80;;
22129;SDS011;11231;50.746;4.272;2023-07-20T03:35:16;20.53;;;7.40;;
22129;SDS011;11231;50.746;4.272;2023-07-20T03:37:42;18.70;;;7.70;;
22129;SDS011;11231;50.746;4.272;2023-07-20T03:40:08;18.30;;;7.80;;
22129;SDS011;11231;50.746;4.272;2023-07-20T03:42:35;21.33;;;7.70;;
22129;SDS011;11231;50.746;4.272;2023-07-20T03:45:01;16.93;;;7.20;;
22129;SDS011;11231;50.746;4.272;2023-07-20T03:47:28;18.77;;;7.70;;
22129;SDS011;11231;50.746;4.272;2023-07-20T03:49:53;16.27;;;7.07;;
22129;SDS011;11231;50.746;4.272;2023-07-20T03:52:19;22.93;;;8.20;;
22129;SDS011;11231;50.746;4.272;2023-07-20T03:54:45;20.23;;;8.23;;
22129;SDS011;11231;50.746;4.272;2023-07-20T03:57:11;19.83;;;8.80;;
22129;SDS011;11231;50.746;4.272;2023-07-20T03:59:37;16.50;;;7.93;;
22129;SDS011;11231;50.746;4.272;2023-07-20T04:02:03;20.10;;;9.27;;
22129;SDS011;11231;50.746;4.272;2023-07-20T04:04:30;20.40;;;8.93;;
22129;SDS011;11231;50.746;4.272;2023-07-20T04:06:56;23.33;;;9.17;;
22129;SDS011;11231;50.746;4.272;2023-07-20T04:09:22;22.73;;;9.53;;
22129;SDS011;11231;50.746;4.272;2023-07-20T04:11:47;23.93;;;9.43;;
22129;SDS011;11231;50.746;4.272;2023-07-20T04:14:13;24.10;;;9.07;;
22129;SDS011;11231;50.746;4.272;2023-07-20T04:16:39;25.17;;;9.37;;
22129;SDS011;11231;50.746;4.272;2023-07-20T04:19:04;18.97;;;9.07;;
22129;SDS011;11231;50.746;4.272;2023-07-20T04:21:30;19.13;;;9.57;;
22129;SDS011;11231;50.746;4.272;2023-07-20T04:23:56;20.83;;;9.73;;
22129;SDS011;11231;50.746;4.272;2023-07-20T04:26:21;22.80;;;9.63;;
22129;SDS011;11231;50.746;4.272;2023-07-20T04:28:48;22.40;;;8.97;;
22129;SDS011;11231;50.746;4.272;2023-07-20T04:31:26;22.83;;;9.93;;
22129;SDS011;11231;50.746;4.272;2023-07-20T04:33:52;22.83;;;10.07;;
22129;SDS011;11231;50.746;4.272;2023-07-20T04:36:18;22.97;;;9.67;;
22129;SDS011;11231;50.746;4.272;2023-07-20T04:38:46;20.73;;;9.70;;
22129;SDS011;11231;50.746;4.272;2023-07-20T04:41:16;20.43;;;9.17;;
22129;SDS011;11231;50.746;4.272;2023-07-20T04:43:45;20.73;;;10.23;;
22129;SDS011;11231;50.746;4.272;2023-07-20T04:46:14;21.33;;;10.17;;
22129;SDS011;11231;50.746;4.272;2023-07-20T04:48:41;24.33;;;10.30;;
22129;SDS011;11231;50.746;4.272;2023-07-20T04:51:06;21.80;;;9.93;;
22129;SDS011;11231;50.746;4.272;2023-07-20T04:53:32;26.57;;;10.23;;
22129;SDS011;11231;50.746;4.272;2023-07-20T04:55:58;20.63;;;10.17;;
22129;SDS011;11231;50.746;4.272;2023-07-20T04:58:24;22.43;;;9.50;;
22129;SDS011;11231;50.746;4.272;2023-07-20T05:00:51;27.13;;;10.33;;
22129;SDS011;11231;50.746;4.272;2023-07-20T05:03:19;25.73;;;10.63;;
22129;SDS011;11231;50.746;4.272;2023-07-20T05:05:46;23.77;;;10.33;;
22129;SDS011;11231;50.746;4.272;2023-07-20T05:08:14;24.97;;;10.53;;
22129;SDS011;11231;50.746;4.272;2023-07-20T05:10:39;18.47;;;9.40;;
22129;SDS011;11231;50.746;4.272;2023-07-20T05:13:06;22.53;;;10.13;;
22129;SDS011;11231;50.746;4.272;2023-07-20T05:15:32;20.50;;;10.10;;
22129;SDS011;11231;50.746;4.272;2023-07-20T05:17:59;25.17;;;10.50;;
22129;SDS011;11231;50.746;4.272;2023-07-20T05:20:26;19.63;;;9.70;;
22129;SDS011;11231;50.746;4.272;2023-07-20T05:22:53;22.37;;;9.70;;
22129;SDS011;11231;50.746;4.272;2023-07-20T05:25:19;22.90;;;9.10;;
22129;SDS011;11231;50.746;4.272;2023-07-20T05:27:47;20.53;;;9.53;;
22129;SDS011;11231;50.746;4.272;2023-07-20T05:30:13;24.53;;;9.80;;
22129;SDS011;11231;50.746;4.272;2023-07-20T05:32:39;21.47;;;9.67;;
22129;SDS011;11231;50.746;4.272;2023-07-20T05:35:04;24.03;;;9.70;;
22129;SDS011;11231;50.746;4.272;2023-07-20T05:37:31;18.00;;;9.40;;
22129;SDS011;11231;50.746;4.272;2023-07-20T05:39:57;18.40;;;9.97;;
22129;SDS011;11231;50.746;4.272;2023-07-20T05:42:22;21.40;;;9.47;;
22129;SDS011;11231;50.746;4.272;2023-07-20T05:44:48;22.13;;;9.60;;
22129;SDS011;11231;50.746;4.272;2023-07-20T05:47:15;18.37;;;9.10;;
22129;SDS011;11231;50.746;4.272;2023-07-20T05:49:40;22.50;;;8.77;;
22129;SDS011;11231;50.746;4.272;2023-07-20T05:52:06;19.53;;;8.83;;
22129;SDS011;11231;50.746;4.272;2023-07-20T05:54:32;21.73;;;9.47;;
22129;SDS011;11231;50.746;4.272;2023-07-20T05:56:57;18.60;;;8.90;;
22129;SDS011;11231;50.746;4.272;2023-07-20T05:59:24;19.60;;;9.20;;
22129;SDS011;11231;50.746;4.272;2023-07-20T06:01:49;20.70;;;9.17;;
22129;SDS011;11231;50.746;4.272;2023-07-20T06:04:15;17.03;;;8.93;;
22129;SDS011;11231;50.746;4.272;2023-07-20T06:06:41;19.87;;;9.53;;
22129;SDS011;11231;50.746;4.272;2023-07-20T06:09:07;20.20;;;9.37;;
22129;SDS011;11231;50.746;4.272;2023-07-20T06:11:37;17.07;;;9.20;;
22129;SDS011;11231;50.746;4.272;2023-07-20T06:14:03;18.70;;;9.60;;
22129;SDS011;11231;50.746;4.272;2023-07-20T06:16:29;17.80;;;9.27;;
22129;SDS011;11231;50.746;4.272;2023-07-20T06:18:55;27.17;;;11.70;;
22129;SDS011;11231;50.746;4.272;2023-07-20T06:21:21;23.03;;;12.40;;
22129;SDS011;11231;50.746;4.272;2023-07-20T06:23:47;20.13;;;11.10;;
22129;SDS011;11231;50.746;4.272;2023-07-20T06:26:13;19.67;;;10.77;;
22129;SDS011;11231;50.746;4.272;2023-07-20T06:28:39;20.80;;;9.80;;
22129;SDS011;11231;50.746;4.272;2023-07-20T06:31:05;19.13;;;9.30;;
22129;SDS011;11231;50.746;4.272;2023-07-20T06:33:30;21.00;;;9.90;;
22129;SDS011;11231;50.746;4.272;2023-07-20T06:35:57;19.87;;;9.50;;
22129;SDS011;11231;50.746;4.272;2023-07-20T06:38:23;23.17;;;10.03;;
22129;SDS011;11231;50.746;4.272;2023-07-20T06:40:49;22.60;;;9.90;;
22129;SDS011;11231;50.746;4.272;2023-07-20T06:43:16;20.17;;;9.63;;
22129;SDS011;11231;50.746;4.272;2023-07-20T06:45:42;20.83;;;9.10;;
22129;SDS011;11231;50.746;4.272;2023-07-20T06:48:08;20.27;;;9.13;;
22129;SDS011;11231;50.746;4.272;2023-07-20T06:50:33;20.83;;;9.00;;
22129;SDS011;11231;50.746;4.272;2023-07-20T06:52:59;18.90;;;8.27;;
22129;SDS011;11231;50.746;4.272;2023-07-20T06:55:28;19.10;;;9.00;;
22129;SDS011;11231;50.746;4.272;2023-07-20T06:57:54;21.87;;;9.43;;
22129;SDS011;11231;50.746;4.272;2023-07-20T07:00:19;17.47;;;8.57;;
22129;SDS011;11231;50.746;4.272;2023-07-20T07:02:45;19.67;;;9.63;;
22129;SDS011;11231;50.746;4.272;2023-07-20T07:05:11;18.93;;;9.40;;
22129;SDS011;11231;50.746;4.272;2023-07-20T07:07:38;16.70;;;9.27;;
22129;SDS011;11231;50.746;4.272;2023-07-20T07:10:04;17.90;;;9.57;;
22129;SDS011;11231;50.746;4.272;2023-07-20T07:12:30;18.13;;;9.13;;
22129;SDS011;11231;50.746;4.272;2023-07-20T07:14:56;18.43;;;9.13;;
22129;SDS011;11231;50.746;4.272;2023-07-20T07:17:24;13.77;;;8.57;;
22129;SDS011;11231;50.746;4.272;2023-07-20T07:19:50;17.57;;;9.30;;
22129;SDS011;11231;50.746;4.272;2023-07-20T07:22:18;14.50;;;8.40;;
22129;SDS011;11231;50.746;4.272;2023-07-20T07:24:44;20.07;;;8.47;;
22129;SDS011;11231;50.746;4.272;2023-07-20T07:27:10;15.13;;;8.00;;
22129;SDS011;11231;50.746;4.272;2023-07-20T07:29:36;17.80;;;7.97;;
22129;SDS011;11231;50.746;4.272;2023-07-20T07:32:03;13.67;;;7.97;;
22129;SDS011;11231;50.746;4.272;2023-07-20T07:34:29;14.10;;;7.50;;
22129;SDS011;11231;50.746;4.272;2023-07-20T07:36:56;12.47;;;6.23;;
22129;SDS011;11231;50.746;4.272;2023-07-20T07:39:22;12.37;;;6.43;;
22129;SDS011;11231;50.746;4.272;2023-07-20T07:41:49;13.87;;;6.40;;
22129;SDS011;11231;50.746;4.272;2023-07-20T07:44:15;14.07;;;6.20;;
22129;SDS011;11231;50.746;4.272;2023-07-20T07:46:40;7.18;;;3.38;;
22129;SDS011;11231;50.746;4.272;2023-07-20T07:49:06;6.72;;;3.30;;
22129;SDS011;11231;50.746;4.272;2023-07-20T07:51:32;8.63;;;4.03;;
22129;SDS011;11231;50.746;4.272;2023-07-20T07:53:58;13.07;;;5.38;;
22129;SDS011;11231;50.746;4.272;2023-07-20T07:56:24;7.28;;;4.70;;
22129;SDS011;11231;50.746;4.272;2023-07-20T07:58:50;9.40;;;4.70;;
22129;SDS011;11231;50.746;4.272;2023-07-20T08:01:17;9.82;;;5.63;;
22129;SDS011;11231;50.746;4.272;2023-07-20T08:03:45;10.18;;;5.60;;
22129;SDS011;11231;50.746;4.272;2023-07-20T08:06:12;13.13;;;6.15;;
22129;SDS011;11231;50.746;4.272;2023-07-20T08:08:39;12.88;;;6.05;;
22129;SDS011;11231;50.746;4.272;2023-07-20T08:11:04;11.30;;;6.07;;
22129;SDS011;11231;50.746;4.272;2023-07-20T08:13:30;13.30;;;6.13;;
22129;SDS011;11231;50.746;4.272;2023-07-20T08:15:57;10.93;;;5.18;;
22129;SDS011;11231;50.746;4.272;2023-07-20T08:18:22;9.27;;;4.43;;
22129;SDS011;11231;50.746;4.272;2023-07-20T08:20:48;7.70;;;4.20;;
22129;SDS011;11231;50.746;4.272;2023-07-20T08:23:14;6.32;;;3.35;;
22129;SDS011;11231;50.746;4.272;2023-07-20T08:25:40;7.72;;;3.17;;
22129;SDS011;11231;50.746;4.272;2023-07-20T08:28:15;5.25;;;2.50;;
22129;SDS011;11231;50.746;4.272;2023-07-20T08:30:42;6.47;;;3.30;;
22129;SDS011;11231;50.746;4.272;2023-07-20T08:33:12;5.78;;;2.78;;
22129;SDS011;11231;50.746;4.272;2023-07-20T08:35:39;6.03;;;2.83;;
22129;SDS011;11231;50.746;4.272;2023-07-20T08:38:05;4.63;;;2.40;;
22129;SDS011;11231;50.746;4.272;2023-07-20T08:40:32;4.65;;;2.00;;
22129;SDS011;11231;50.746;4.272;2023-07-20T08:42:59;4.45;;;2.53;;
22129;SDS011;11231;50.746;4.272;2023-07-20T08:45:29;2.95;;;1.88;;
22129;SDS011;11231;50.746;4.272;2023-07-20T08:48:00;4.20;;;1.95;;
22129;SDS011;11231;50.746;4.272;2023-07-20T08:50:31;6.13;;;2.60;;
22129;SDS011;11231;50.746;4.272;2023-07-20T08:52:58;4.25;;;2.28;;
22129;SDS011;11231;50.746;4.272;2023-07-20T08:55:26;3.20;;;1.80;;
22129;SDS011;11231;50.746;4.272;2023-07-20T08:57:55;4.43;;;1.60;;
22129;SDS011;11231;50.746;4.272;2023-07-20T09:00:23;2.63;;;1.40;;
22129;SDS011;11231;50.746;4.272;2023-07-20T09:02:50;3.22;;;1.10;;
22129;SDS011;11231;50.746;4.272;2023-07-20T09:05:18;1.30;;;1.05;;
22129;SDS011;11231;50.746;4.272;2023-07-20T09:07:44;3.60;;;0.90;;
22129;SDS011;11231;50.746;4.272;2023-07-20T09:10:11;2.55;;;1.00;;
22129;SDS011;11231;50.746;4.272;2023-07-20T09:12:38;1.48;;;0.82;;
22129;SDS011;11231;50.746;4.272;2023-07-20T09:15:09;3.05;;;1.15;;
22129;SDS011;11231;50.746;4.272;2023-07-20T09:17:35;2.55;;;1.02;;
22129;SDS011;11231;50.746;4.272;2023-07-20T09:20:03;2.42;;;1.20;;
22129;SDS011;11231;50.746;4.272;2023-07-20T09:22:35;2.53;;;1.00;;
22129;SDS011;11231;50.746;4.272;2023-07-20T09:25:14;5.25;;;1.60;;
22129;SDS011;11231;50.746;4.272;2023-07-20T09:27:41;2.25;;;1.40;;
22129;SDS011;11231;50.746;4.272;2023-07-20T09:30:08;3.40;;;1.80;;
22129;SDS011;11231;50.746;4.272;2023-07-20T09:32:43;4.10;;;1.60;;
22129;SDS011;11231;50.746;4.272;2023-07-20T09:35:16;3.72;;;1.83;;
22129;SDS011;11231;50.746;4.272;2023-07-20T09:37:50;3.25;;;1.98;;
22129;SDS011;11231;50.746;4.272;2023-07-20T09:40:20;4.13;;;1.80;;
22129;SDS011;11231;50.746;4.272;2023-07-20T09:42:46;7.55;;;2.20;;
22129;SDS011;11231;50.746;4.272;2023-07-20T09:45:13;3.60;;;1.92;;
22129;SDS011;11231;50.746;4.272;2023-07-20T09:47:39;5.10;;;2.30;;
22129;SDS011;11231;50.746;4.272;2023-07-20T09:50:06;4.53;;;1.90;;
22129;SDS011;11231;50.746;4.272;2023-07-20T09:52:37;4.53;;;2.00;;
22129;SDS011;11231;50.746;4.272;2023-07-20T09:55:05;4.18;;;1.98;;
22129;SDS011;11231;50.746;4.272;2023-07-20T09:57:34;5.03;;;2.20;;
22129;SDS011;11231;50.746;4.272;2023-07-20T10:00:01;4.22;;;2.00;;
22129;SDS011;11231;50.746;4.272;2023-07-20T10:02:33;4.97;;;2.20;;
22129;SDS011;11231;50.746;4.272;2023-07-20T10:05:02;5.45;;;2.30;;
22129;SDS011;11231;50.746;4.272;2023-07-20T10:07:33;4.63;;;2.33;;
22129;SDS011;11231;50.746;4.272;2023-07-20T10:10:05;4.32;;;2.70;;
22129;SDS011;11231;50.746;4.272;2023-07-20T10:12:36;5.25;;;2.70;;
22129;SDS011;11231;50.746;4.272;2023-07-20T10:17:40;6.05;;;2.63;;
22129;SDS011;11231;50.746;4.272;2023-07-20T10:20:15;4.47;;;2.72;;
22129;SDS011;11231;50.746;4.272;2023-07-20T10:22:44;4.45;;;2.40;;
22129;SDS011;11231;50.746;4.272;2023-07-20T10:25:14;6.45;;;2.88;;
22129;SDS011;11231;50.746;4.272;2023-07-20T10:27:41;5.28;;;3.00;;
22129;SDS011;11231;50.746;4.272;2023-07-20T10:30:08;5.65;;;3.15;;
22129;SDS011;11231;50.746;4.272;2023-07-20T10:32:34;4.82;;;2.90;;
22129;SDS011;11231;50.746;4.272;2023-07-20T10:35:00;5.25;;;2.70;;
22129;SDS011;11231;50.746;4.272;2023-07-20T10:42:58;4.10;;;2.30;;
22129;SDS011;11231;50.746;4.272;2023-07-20T10:47:59;4.15;;;2.40;;
22129;SDS011;11231;50.746;4.272;2023-07-20T10:50:29;4.13;;;2.53;;
22129;SDS011;11231;50.746;4.272;2023-07-20T10:53:04;5.93;;;2.83;;
22129;SDS011;11231;50.746;4.272;2023-07-20T10:55:39;4.93;;;2.80;;
22129;SDS011;11231;50.746;4.272;2023-07-20T10:58:11;5.32;;;2.85;;
22129;SDS011;11231;50.746;4.272;2023-07-20T11:00:58;5.97;;;2.53;;
22129;SDS011;11231;50.746;4.272;2023-07-20T11:03:30;5.15;;;2.40;;
22129;SDS011;11231;50.746;4.272;2023-07-20T11:05:57;10.30;;;1.77;;
22129;SDS011;11231;50.746;4.272;2023-07-20T11:14:00;9.00;;;1.83;;
22129;SDS011;11231;50.746;4.272;2023-07-20T11:16:44;6.88;;;1.92;;
22129;SDS011;11231;50.746;4.272;2023-07-20T11:19:21;4.40;;;2.00;;
22129;SDS011;11231;50.746;4.272;2023-07-20T11:24:18;4.65;;;2.40;;
22129;SDS011;11231;50.746;4.272;2023-07-20T11:26:44;4.07;;;2.30;;
22129;SDS011;11231;50.746;4.272;2023-07-20T11:29:12;5.40;;;2.28;;
22129;SDS011;11231;50.746;4.272;2023-07-20T11:31:39;4.38;;;2.20;;
22129;SDS011;11231;50.746;4.272;2023-07-20T11:34:07;5.53;;;1.90;;
22129;SDS011;11231;50.746;4.272;2023-07-20T11:36:36;3.38;;;1.98;;
22129;SDS011;11231;50.746;4.272;2023-07-20T11:39:01;5.13;;;1.80;;
22129;SDS011;11231;50.746;4.272;2023-07-20T11:41:29;2.78;;;1.90;;
22129;SDS011;11231;50.746;4.272;2023-07-20T11:43:56;3.78;;;1.85;;
22129;SDS011;11231;50.746;4.272;2023-07-20T11:46:22;5.47;;;1.92;;
22129;SDS011;11231;50.746;4.272;2023-07-20T11:48:48;3.05;;;1.50;;
22129;SDS011;11231;50.746;4.272;2023-07-20T11:51:14;6.38;;;1.92;;
22129;SDS011;11231;50.746;4.272;2023-07-20T11:53:41;2.90;;;1.50;;
22129;SDS011;11231;50.746;4.272;2023-07-20T11:56:08;3.97;;;1.42;;
22129;SDS011;11231;50.746;4.272;2023-07-20T11:58:35;2.85;;;1.60;;
22129;SDS011;11231;50.746;4.272;2023-07-20T12:01:06;3.00;;;1.63;;
22129;SDS011;11231;50.746;4.272;2023-07-20T12:03:32;5.53;;;1.40;;
22129;SDS011;11231;50.746;4.272;2023-07-20T12:06:05;5.20;;;1.90;;
22129;SDS011;11231;50.746;4.272;2023-07-20T12:08:32;5.30;;;1.75;;
22129;SDS011;11231;50.746;4.272;2023-07-20T12:10:58;3.45;;;1.80;;
22129;SDS011;11231;50.746;4.272;2023-07-20T12:13:23;4.95;;;1.80;;
22129;SDS011;11231;50.746;4.272;2023-07-20T12:16:06;4.32;;;1.52;;
22129;SDS011;11231;50.746;4.272;2023-07-20T12:18:34;3.83;;;1.60;;
22129;SDS011;11231;50.746;4.272;2023-07-20T12:21:01;4.60;;;1.58;;
22129;SDS011;11231;50.746;4.272;2023-07-20T12:23:34;3.25;;;1.50;;
22129;SDS011;11231;50.746;4.272;2023-07-20T12:26:01;4.80;;;1.50;;
22129;SDS011;11231;50.746;4.272;2023-07-20T12:28:27;4.75;;;1.60;;
22129;SDS011;11231;50.746;4.272;2023-07-20T12:30:53;3.95;;;1.67;;
22129;SDS011;11231;50.746;4.272;2023-07-20T12:33:22;4.45;;;1.98;;
22129;SDS011;11231;50.746;4.272;2023-07-20T12:35:48;3.40;;;1.60;;
22129;SDS011;11231;50.746;4.272;2023-07-20T12:38:15;2.97;;;1.67;;
22129;SDS011;11231;50.746;4.272;2023-07-20T12:40:41;3.80;;;1.60;;
22129;SDS011;11231;50.746;4.272;2023-07-20T12:43:07;4.20;;;1.60;;
22129;SDS011;11231;50.746;4.272;2023-07-20T12:45:33;5.90;;;1.65;;
22129;SDS011;11231;50.746;4.272;2023-07-20T12:47:59;5.15;;;1.60;;
22129;SDS011;11231;50.746;4.272;2023-07-20T12:50:25;4.72;;;1.83;;
22129;SDS011;11231;50.746;4.272;2023-07-20T12:52:51;3.47;;;1.40;;
22129;SDS011;11231;50.746;4.272;2023-07-20T12:55:17;5.75;;;1.70;;
22129;SDS011;11231;50.746;4.272;2023-07-20T12:57:43;3.92;;;1.58;;
22129;SDS011;11231;50.746;4.272;2023-07-20T13:00:11;6.68;;;1.67;;
22129;SDS011;11231;50.746;4.272;2023-07-20T13:02:37;3.17;;;1.55;;
22129;SDS011;11231;50.746;4.272;2023-07-20T13:05:03;3.80;;;1.63;;
22129;SDS011;11231;50.746;4.272;2023-07-20T13:07:33;3.65;;;1.50;;
22129;SDS011;11231;50.746;4.272;2023-07-20T13:10:01;3.28;;;1.27;;
22129;SDS011;11231;50.746;4.272;2023-07-20T13:12:29;2.88;;;1.50;;
22129;SDS011;11231;50.746;4.272;2023-07-20T13:14:55;4.15;;;1.17;;
22129;SDS011;11231;50.746;4.272;2023-07-20T13:17:25;3.00;;;1.40;;
22129;SDS011;11231;50.746;4.272;2023-07-20T13:19:50;3.08;;;1.40;;
22129;SDS011;11231;50.746;4.272;2023-07-20T13:22:16;3.42;;;1.42;;
22129;SDS011;11231;50.746;4.272;2023-07-20T13:24:44;4.20;;;1.52;;
22129;SDS011;11231;50.746;4.272;2023-07-20T13:27:11;4.13;;;1.50;;
22129;SDS011;11231;50.746;4.272;2023-07-20T13:29:36;15.85;;;2.70;;
22129;SDS011;11231;50.746;4.272;2023-07-20T13:32:02;19.75;;;2.90;;
22129;SDS011;11231;50.746;4.272;2023-07-20T13:34:30;14.63;;;3.58;;
22129;SDS011;11231;50.746;4.272;2023-07-20T13:36:56;9.32;;;2.58;;
22129;SDS011;11231;50.746;4.272;2023-07-20T13:39:22;9.02;;;2.90;;
22129;SDS011;11231;50.746;4.272;2023-07-20T13:41:49;6.68;;;2.28;;
22129;SDS011;11231;50.746;4.272;2023-07-20T13:44:15;6.60;;;2.17;;
22129;SDS011;11231;50.746;4.272;2023-07-20T13:46:40;6.22;;;2.72;;
22129;SDS011;11231;50.746;4.272;2023-07-20T13:49:06;3.83;;;2.40;;
22129;SDS011;11231;50.746;4.272;2023-07-20T13:51:32;5.35;;;2.60;;
22129;SDS011;11231;50.746;4.272;2023-07-20T13:53:57;5.13;;;2.80;;
22129;SDS011;11231;50.746;4.272;2023-07-20T13:56:23;4.00;;;2.35;;
22129;SDS011;11231;50.746;4.272;2023-07-20T13:58:50;5.13;;;2.45;;
22129;SDS011;11231;50.746;4.272;2023-07-20T14:01:15;4.93;;;2.40;;
22129;SDS011;11231;50.746;4.272;2023-07-20T14:03:43;7.28;;;2.42;;
22129;SDS011;11231;50.746;4.272;2023-07-20T14:06:09;4.25;;;2.30;;
22129;SDS011;11231;50.746;4.272;2023-07-20T14:08:35;5.97;;;2.00;;
22129;SDS011;11231;50.746;4.272;2023-07-20T14:11:00;3.03;;;1.75;;
22129;SDS011;11231;50.746;4.272;2023-07-20T14:13:26;4.53;;;2.10;;
22129;SDS011;11231;50.746;4.272;2023-07-20T14:15:52;3.65;;;2.10;;
22129;SDS011;11231;50.746;4.272;2023-07-20T14:18:18;7.18;;;2.40;;
22129;SDS011;11231;50.746;4.272;2023-07-20T14:20:44;4.35;;;2.20;;
22129;SDS011;11231;50.746;4.272;2023-07-20T14:23:10;3.85;;;2.00;;
22129;SDS011;11231;50.746;4.272;2023-07-20T14:25:35;3.92;;;2.17;;
22129;SDS011;11231;50.746;4.272;2023-07-20T14:28:01;6.55;;;2.28;;
22129;SDS011;11231;50.746;4.272;2023-07-20T14:30:27;6.22;;;2.17;;
22129;SDS011;11231;50.746;4.272;2023-07-20T14:32:52;4.85;;;1.80;;
22129;SDS011;11231;50.746;4.272;2023-07-20T14:35:18;4.43;;;1.80;;
22129;SDS011;11231;50.746;4.272;2023-07-20T14:37:44;3.35;;;1.88;;
22129;SDS011;11231;50.746;4.272;2023-07-20T14:40:12;3.95;;;1.63;;
22129;SDS011;11231;50.746;4.272;2023-07-20T14:42:38;3.33;;;2.03;;
22129;SDS011;11231;50.746;4.272;2023-07-20T14:45:04;5.93;;;2.10;;
22129;SDS011;11231;50.746;4.272;2023-07-20T14:47:31;6.38;;;2.08;;
22129;SDS011;11231;50.746;4.272;2023-07-20T14:50:03;3.97;;;2.03;;
22129;SDS011;11231;50.746;4.272;2023-07-20T14:52:29;4.03;;;1.85;;
22129;SDS011;11231;50.746;4.272;2023-07-20T14:54:55;4.30;;;1.80;;
22129;SDS011;11231;50.746;4.272;2023-07-20T14:57:21;4.20;;;2.08;;
22129;SDS011;11231;50.746;4.272;2023-07-20T14:59:51;5.20;;;2.35;;
22129;SDS011;11231;50.746;4.272;2023-07-20T15:02:18;5.40;;;1.98;;
22129;SDS011;11231;50.746;4.272;2023-07-20T15:04:50;5.18;;;2.25;;
22129;SDS011;11231;50.746;4.272;2023-07-20T15:07:16;5.63;;;2.00;;
22129;SDS011;11231;50.746;4.272;2023-07-20T15:09:46;5.97;;;1.92;;
22129;SDS011;11231;50.746;4.272;2023-07-20T15:12:12;5.90;;;2.13;;
22129;SDS011;11231;50.746;4.272;2023-07-20T15:14:39;5.63;;;2.00;;